EWG13LF EDDH-EDDL
Flight info
| Callsign | EWG13LF |
|---|---|
| Flight time | N/A |
| Altitude | 28000 |
| Route | IDEKO7G IDEKO N850 ROBEG DCT DENOL T851 HALME HALME1A |
| Aircraft | A320/M-SDE3FGHIRWY/LB1 |
Departure
| Time | 2026-05-07 17:52 |
|---|---|
| Airport | Hamburg Helmut Schmidt Airport (EDDH) |
Arrival
| Time | N/A |
|---|---|
| Airport | Düsseldorf Airport (EDDL) |
| Time | Latitude | Longitude | Altitude | Speed | Heading |
|---|---|---|---|---|---|
| 2026-05-07 17:15 | 53.63106 | 10.00385 | 51 ft | 0 kts | 86° |
| 2026-05-07 17:44 | 53.63105 | 10.00360 | 51 ft | 2 kts | 86° |
| 2026-05-07 17:44 | 53.63103 | 10.00331 | 51 ft | 2 kts | 86° |
| 2026-05-07 17:45 | 53.63103 | 10.00323 | 51 ft | 0 kts | 86° |
| 2026-05-07 17:45 | 53.63102 | 10.00295 | 51 ft | 2 kts | 86° |
| 2026-05-07 17:45 | 53.63100 | 10.00266 | 51 ft | 2 kts | 96° |
| 2026-05-07 17:46 | 53.63101 | 10.00252 | 51 ft | 0 kts | 127° |
| 2026-05-07 17:46 | 53.63108 | 10.00237 | 49 ft | 2 kts | 127° |
| 2026-05-07 17:46 | 53.63119 | 10.00214 | 48 ft | 2 kts | 127° |
| 2026-05-07 17:46 | 53.63130 | 10.00192 | 48 ft | 2 kts | 175° |
| 2026-05-07 17:47 | 53.63140 | 10.00193 | 49 ft | 0 kts | 183° |
| 2026-05-07 17:48 | 53.63122 | 10.00192 | 47 ft | 9 kts | 181° |
| 2026-05-07 17:49 | 53.63037 | 10.00149 | 51 ft | 13 kts | 211° |
| 2026-05-07 17:49 | 53.62964 | 10.00071 | 48 ft | 12 kts | 212° |
| 2026-05-07 17:49 | 53.62913 | 9.99978 | 50 ft | 10 kts | 249° |
| 2026-05-07 17:49 | 53.62894 | 9.99907 | 50 ft | 0 kts | 243° |
| 2026-05-07 17:50 | 53.62883 | 9.99868 | 50 ft | 9 kts | 243° |
| 2026-05-07 17:50 | 53.62889 | 9.99722 | 49 ft | 16 kts | 330° |
| 2026-05-07 17:51 | 53.63003 | 9.99626 | 49 ft | 24 kts | 333° |
| 2026-05-07 17:51 | 53.63328 | 9.99347 | 51 ft | 86 kts | 332° |
| 2026-05-07 17:51 | 53.64032 | 9.98739 | 51 ft | 141 kts | 333° |
| 2026-05-07 17:51 | 53.65002 | 9.97914 | 372 ft | 162 kts | 336° |
| 2026-05-07 17:52 | 53.66080 | 9.97010 | 835 ft | 185 kts | 338° |
| 2026-05-07 17:52 | 53.67298 | 9.96021 | 1314 ft | 203 kts | 338° |
| 2026-05-07 17:52 | 53.68647 | 9.94951 | 1726 ft | 229 kts | 337° |
| 2026-05-07 17:52 | 53.70133 | 9.93659 | 2317 ft | 249 kts | 330° |
| 2026-05-07 17:53 | 53.71319 | 9.91396 | 2945 ft | 271 kts | 294° |
| 2026-05-07 17:53 | 53.71589 | 9.88172 | 3586 ft | 289 kts | 264° |
| 2026-05-07 17:53 | 53.71152 | 9.84811 | 4212 ft | 304 kts | 251° |
| 2026-05-07 17:53 | 53.70395 | 9.81396 | 4833 ft | 316 kts | 246° |
| 2026-05-07 17:54 | 53.69535 | 9.77957 | 5446 ft | 319 kts | 246° |
| 2026-05-07 17:54 | 53.68683 | 9.74501 | 6077 ft | 323 kts | 247° |
| 2026-05-07 17:54 | 53.67869 | 9.70962 | 6691 ft | 323 kts | 249° |
| 2026-05-07 17:54 | 53.67114 | 9.67429 | 7290 ft | 324 kts | 250° |
| 2026-05-07 17:55 | 53.66185 | 9.63957 | 7896 ft | 327 kts | 238° |
| 2026-05-07 17:55 | 53.64778 | 9.60942 | 8530 ft | 329 kts | 223° |
| 2026-05-07 17:55 | 53.62951 | 9.58624 | 9171 ft | 332 kts | 208° |
| 2026-05-07 17:55 | 53.60797 | 9.57185 | 9821 ft | 334 kts | 193° |
| 2026-05-07 17:56 | 53.58486 | 9.56606 | 10431 ft | 336 kts | 186° |
| 2026-05-07 17:56 | 53.56186 | 9.56165 | 11018 ft | 338 kts | 186° |
| 2026-05-07 17:56 | 53.53831 | 9.55707 | 11628 ft | 341 kts | 187° |
| 2026-05-07 17:56 | 53.51459 | 9.55233 | 12249 ft | 344 kts | 187° |
| 2026-05-07 17:57 | 53.49076 | 9.54753 | 12879 ft | 346 kts | 187° |
| 2026-05-07 17:57 | 53.47487 | 9.54436 | 13301 ft | 348 kts | 187° |
| 2026-05-07 17:57 | 53.44246 | 9.53794 | 14141 ft | 352 kts | 187° |
| 2026-05-07 17:57 | 53.42012 | 9.53353 | 14670 ft | 355 kts | 187° |
| 2026-05-07 17:58 | 53.39546 | 9.52866 | 15267 ft | 358 kts | 187° |
| 2026-05-07 17:58 | 53.37048 | 9.52375 | 15878 ft | 361 kts | 188° |
| 2026-05-07 17:58 | 53.34544 | 9.51885 | 16497 ft | 364 kts | 187° |
| 2026-05-07 17:58 | 53.32010 | 9.51391 | 17126 ft | 366 kts | 187° |
| 2026-05-07 17:59 | 53.29468 | 9.50894 | 17770 ft | 369 kts | 187° |
| 2026-05-07 17:59 | 53.26934 | 9.50397 | 18415 ft | 371 kts | 187° |
| 2026-05-07 17:59 | 53.24357 | 9.49893 | 18993 ft | 372 kts | 187° |
| 2026-05-07 17:59 | 53.21780 | 9.49390 | 19576 ft | 374 kts | 187° |
| 2026-05-07 18:00 | 53.19187 | 9.48885 | 20174 ft | 375 kts | 188° |
| 2026-05-07 18:00 | 53.16590 | 9.48381 | 20783 ft | 375 kts | 188° |
| 2026-05-07 18:00 | 53.13991 | 9.47879 | 21405 ft | 375 kts | 188° |
| 2026-05-07 18:00 | 53.11431 | 9.47385 | 22034 ft | 374 kts | 188° |
| 2026-05-07 18:01 | 53.08849 | 9.46890 | 22675 ft | 373 kts | 188° |
| 2026-05-07 18:01 | 53.06266 | 9.46392 | 23341 ft | 372 kts | 188° |
| 2026-05-07 18:01 | 53.03693 | 9.45896 | 23957 ft | 370 kts | 188° |
| 2026-05-07 18:01 | 53.01138 | 9.45403 | 24527 ft | 368 kts | 188° |
| 2026-05-07 18:02 | 52.96077 | 9.44388 | 25715 ft | 363 kts | 189° |
| 2026-05-07 18:02 | 52.93615 | 9.43853 | 26308 ft | 359 kts | 189° |
| 2026-05-07 18:02 | 52.91146 | 9.43311 | 26924 ft | 356 kts | 189° |
| 2026-05-07 18:03 | 52.88703 | 9.42776 | 27556 ft | 351 kts | 189° |
| 2026-05-07 18:03 | 52.86276 | 9.42248 | 27996 ft | 354 kts | 188° |
| 2026-05-07 18:03 | 52.83793 | 9.41712 | 28092 ft | 365 kts | 188° |
| 2026-05-07 18:03 | 52.81220 | 9.41160 | 28103 ft | 379 kts | 188° |
| 2026-05-07 18:04 | 52.78556 | 9.40589 | 28107 ft | 392 kts | 188° |
| 2026-05-07 18:04 | 52.75810 | 9.40003 | 28108 ft | 404 kts | 188° |
| 2026-05-07 18:04 | 52.73016 | 9.39410 | 28109 ft | 415 kts | 188° |
| 2026-05-07 18:05 | 52.67147 | 9.38170 | 28107 ft | 429 kts | 188° |
| 2026-05-07 18:05 | 52.61248 | 9.36925 | 27809 ft | 429 kts | 189° |
| 2026-05-07 18:05 | 52.58355 | 9.35830 | 27432 ft | 424 kts | 202° |
| 2026-05-07 18:06 | 52.55760 | 9.33552 | 27062 ft | 420 kts | 218° |
| 2026-05-07 18:06 | 52.53677 | 9.30244 | 26701 ft | 415 kts | 233° |
| 2026-05-07 18:06 | 52.52096 | 9.26310 | 26341 ft | 413 kts | 238° |
| 2026-05-07 18:06 | 52.50586 | 9.22348 | 25989 ft | 411 kts | 238° |
| 2026-05-07 18:07 | 52.49077 | 9.18366 | 25638 ft | 409 kts | 238° |
| 2026-05-07 18:07 | 52.47583 | 9.14418 | 25291 ft | 407 kts | 238° |
| 2026-05-07 18:07 | 52.46088 | 9.10473 | 25091 ft | 404 kts | 238° |
| 2026-05-07 18:07 | 52.44598 | 9.06559 | 25037 ft | 404 kts | 238° |
| 2026-05-07 18:08 | 52.43111 | 9.02668 | 24699 ft | 402 kts | 238° |
| 2026-05-07 18:08 | 52.41635 | 8.98817 | 24358 ft | 400 kts | 238° |
| 2026-05-07 18:08 | 52.40177 | 8.95027 | 24037 ft | 398 kts | 238° |
| 2026-05-07 18:08 | 52.38692 | 8.91176 | 23701 ft | 396 kts | 238° |
| 2026-05-07 18:09 | 52.37221 | 8.87360 | 23315 ft | 394 kts | 238° |
| 2026-05-07 18:09 | 52.35765 | 8.83584 | 22927 ft | 392 kts | 238° |
| 2026-05-07 18:09 | 52.34308 | 8.79806 | 22546 ft | 390 kts | 238° |
| 2026-05-07 18:09 | 52.32882 | 8.76113 | 22172 ft | 388 kts | 238° |
| 2026-05-07 18:10 | 52.31437 | 8.72385 | 21799 ft | 386 kts | 238° |
| 2026-05-07 18:10 | 52.29999 | 8.68697 | 21433 ft | 384 kts | 238° |
| 2026-05-07 18:10 | 52.28565 | 8.65021 | 21064 ft | 382 kts | 238° |
| 2026-05-07 18:10 | 52.27144 | 8.61371 | 20707 ft | 380 kts | 238° |
| 2026-05-07 18:11 | 52.25740 | 8.57767 | 20351 ft | 378 kts | 238° |
| 2026-05-07 18:11 | 52.24787 | 8.55320 | 20114 ft | 377 kts | 238° |
| 2026-05-07 18:11 | 52.22926 | 8.50554 | 19657 ft | 374 kts | 238° |
| 2026-05-07 18:11 | 52.21526 | 8.46974 | 19305 ft | 373 kts | 238° |
| 2026-05-07 18:12 | 52.20136 | 8.43424 | 18965 ft | 370 kts | 238° |
| 2026-05-07 18:12 | 52.18751 | 8.39896 | 18633 ft | 368 kts | 238° |
| 2026-05-07 18:12 | 52.17369 | 8.36379 | 18288 ft | 367 kts | 238° |
| 2026-05-07 18:12 | 52.16011 | 8.32923 | 17907 ft | 365 kts | 238° |
| 2026-05-07 18:13 | 52.14642 | 8.29447 | 17530 ft | 363 kts | 238° |
| 2026-05-07 18:13 | 52.13278 | 8.25991 | 17158 ft | 362 kts | 238° |
| 2026-05-07 18:13 | 52.11920 | 8.22556 | 16787 ft | 360 kts | 238° |
| 2026-05-07 18:13 | 52.10568 | 8.19142 | 16425 ft | 357 kts | 237° |
| 2026-05-07 18:14 | 52.09220 | 8.15748 | 16062 ft | 356 kts | 238° |
| 2026-05-07 18:14 | 52.07877 | 8.12369 | 15707 ft | 355 kts | 238° |
| 2026-05-07 18:14 | 52.06555 | 8.09051 | 15356 ft | 353 kts | 237° |
| 2026-05-07 18:14 | 52.05207 | 8.05678 | 15006 ft | 350 kts | 237° |
| 2026-05-07 18:15 | 52.03907 | 8.02422 | 14666 ft | 349 kts | 237° |
| 2026-05-07 18:15 | 52.02579 | 7.99092 | 14322 ft | 348 kts | 237° |
| 2026-05-07 18:15 | 52.01269 | 7.95804 | 14093 ft | 347 kts | 238° |
| 2026-05-07 18:15 | 51.99955 | 7.92515 | 14098 ft | 347 kts | 236° |
| 2026-05-07 18:16 | 51.98495 | 7.89374 | 14111 ft | 348 kts | 232° |
| 2026-05-07 18:16 | 51.96981 | 7.86311 | 14109 ft | 348 kts | 231° |
| 2026-05-07 18:16 | 51.95462 | 7.83310 | 14108 ft | 348 kts | 231° |
| 2026-05-07 18:16 | 51.93919 | 7.80287 | 14102 ft | 347 kts | 231° |
| 2026-05-07 18:17 | 51.92383 | 7.77282 | 13824 ft | 345 kts | 231° |
| 2026-05-07 18:17 | 51.91365 | 7.75288 | 13581 ft | 344 kts | 231° |
| 2026-05-07 18:17 | 51.89838 | 7.72287 | 13197 ft | 343 kts | 231° |
| 2026-05-07 18:17 | 51.88333 | 7.69317 | 12823 ft | 340 kts | 231° |
| 2026-05-07 18:18 | 51.86832 | 7.66355 | 12458 ft | 338 kts | 231° |
| 2026-05-07 18:18 | 51.85337 | 7.63407 | 12091 ft | 337 kts | 231° |
| 2026-05-07 18:18 | 51.83866 | 7.60510 | 11732 ft | 336 kts | 231° |
| 2026-05-07 18:18 | 51.82384 | 7.57599 | 11376 ft | 334 kts | 231° |
| 2026-05-07 18:19 | 51.80908 | 7.54711 | 11109 ft | 331 kts | 231° |
| 2026-05-07 18:19 | 51.79436 | 7.51834 | 11088 ft | 332 kts | 231° |
| 2026-05-07 18:19 | 51.77957 | 7.48945 | 11099 ft | 334 kts | 231° |
| 2026-05-07 18:19 | 51.76482 | 7.46061 | 11101 ft | 333 kts | 231° |
| 2026-05-07 18:20 | 51.75024 | 7.43213 | 11092 ft | 332 kts | 231° |
| 2026-05-07 18:20 | 51.73553 | 7.40337 | 11094 ft | 333 kts | 231° |
| 2026-05-07 18:20 | 51.72080 | 7.37457 | 11089 ft | 333 kts | 231° |
| 2026-05-07 18:20 | 51.70598 | 7.34565 | 11089 ft | 332 kts | 231° |
| 2026-05-07 18:21 | 51.69123 | 7.31695 | 11087 ft | 330 kts | 231° |
| 2026-05-07 18:21 | 51.67693 | 7.28916 | 11080 ft | 313 kts | 231° |
| 2026-05-07 18:21 | 51.66354 | 7.26312 | 11088 ft | 297 kts | 231° |
| 2026-05-07 18:21 | 51.65063 | 7.23809 | 11084 ft | 283 kts | 231° |
| 2026-05-07 18:22 | 51.63832 | 7.21434 | 11085 ft | 268 kts | 231° |
| 2026-05-07 18:22 | 51.63037 | 7.19901 | 11085 ft | 259 kts | 231° |
| 2026-05-07 18:22 | 51.61554 | 7.17034 | 11085 ft | 243 kts | 231° |
| 2026-05-07 18:22 | 51.60480 | 7.14952 | 11078 ft | 242 kts | 231° |
| 2026-05-07 18:23 | 51.59418 | 7.12894 | 11075 ft | 241 kts | 231° |
| 2026-05-07 18:23 | 51.58343 | 7.10815 | 11072 ft | 242 kts | 231° |
| 2026-05-07 18:23 | 51.57266 | 7.08737 | 11072 ft | 242 kts | 231° |